Time;durP1;ratioP1;P1;durP2;ratioP2;P2;SDS_P1;SDS_P2;PMS_P1;PMS_P2;Temp;Humidity;BMP_temperature;BMP_pressure;BME280_temperature;BME280_humidity;BME280_pressure;Samples;Min_cycle;Max_cycle;Signal;HPM_P1;HPM_P2
2023/03/18 00:00:29;;;;;;;8.3;4.1;;;;;;;7.15;76.00098;934.2325;;;;
2023/03/18 00:02:57;;;;;;;8.4;4.9;;;;;;;7.15;76.25;934.3236;;;;
2023/03/18 00:05:31;;;;;;;8.1;4.5;;;;;;;7.21;75.93262;934.3605;;;;
2023/03/18 00:08:01;;;;;;;6.6;4;;;;;;;7.22;75.19727;934.3686;;;;
2023/03/18 00:10:33;;;;;;;5.3;3.9;;;;;;;7.12;75.16895;934.392;;;;
2023/03/18 00:12:58;;;;;;;5.6;4.6;;;;;;;7.05;75.4834;934.3923;;;;
2023/03/18 00:15:23;;;;;;;7.7;4.6;;;;;;;6.96;75.85547;934.382;;;;
2023/03/18 00:17:49;;;;;;;6;4.5;;;;;;;6.94;75.99805;934.4141;;;;
2023/03/18 00:20:15;;;;;;;6.9;4;;;;;;;6.97;76.02539;934.4367;;;;
2023/03/18 00:22:38;;;;;;;5.5;4.2;;;;;;;6.92;76.44629;934.4612;;;;
2023/03/18 00:25:03;;;;;;;7.7;4.3;;;;;;;6.88;76.52051;934.4772;;;;
2023/03/18 00:27:32;;;;;;;7.4;4.1;;;;;;;6.8;76.78711;934.5309;;;;
2023/03/18 00:29:57;;;;;;;5.9;3.8;;;;;;;6.74;77.08301;934.5092;;;;
2023/03/18 00:32:28;;;;;;;5.4;3.9;;;;;;;6.64;77.61914;934.525;;;;
2023/03/18 00:34:53;;;;;;;5.4;3.8;;;;;;;6.63;77.89941;934.5042;;;;
2023/03/18 00:37:29;;;;;;;5.5;3.5;;;;;;;6.63;77.97949;934.5303;;;;
2023/03/18 00:39:47;;;;;;;5.8;3.6;;;;;;;6.66;77.78125;934.5562;;;;
2023/03/18 00:42:13;;;;;;;6;3.6;;;;;;;6.73;77.46484;934.6047;;;;
2023/03/18 00:44:38;;;;;;;7.6;3.7;;;;;;;6.85;76.93457;934.5796;;;;
2023/03/18 00:47:04;;;;;;;6.4;3.7;;;;;;;6.99;76.31348;934.6017;;;;
2023/03/18 00:49:29;;;;;;;7.3;3.9;;;;;;;6.94;76.43945;934.585;;;;
2023/03/18 00:51:55;;;;;;;5.4;3.4;;;;;;;6.78;77.13672;934.5614;;;;
2023/03/18 00:54:23;;;;;;;6.3;3;;;;;;;6.65;77.90234;934.6311;;;;
2023/03/18 00:56:46;;;;;;;4;2.9;;;;;;;6.7;77.75586;934.6076;;;;
2023/03/18 00:59:13;;;;;;;4.4;2.6;;;;;;;6.72;77.82617;934.5865;;;;
2023/03/18 01:01:42;;;;;;;3.5;2.7;;;;;;;6.69;78.12598;934.5234;;;;
2023/03/18 01:04:12;;;;;;;4.4;2.8;;;;;;;6.82;77.87695;934.5561;;;;
2023/03/18 01:06:42;;;;;;;4;2.5;;;;;;;6.83;77.6875;934.6021;;;;
2023/03/18 01:09:09;;;;;;;4.2;1.9;;;;;;;6.84;77.23633;934.5026;;;;
2023/03/18 01:11:34;;;;;;;2.8;1.8;;;;;;;6.77;77.53906;934.5517;;;;
2023/03/18 01:14:00;;;;;;;2.6;1.8;;;;;;;6.82;77.58398;934.4944;;;;
2023/03/18 01:16:28;;;;;;;5.7;2.2;;;;;;;6.86;77.53418;934.5061;;;;
2023/03/18 01:18:53;;;;;;;2.9;2;;;;;;;6.98;77.03418;934.4899;;;;
2023/03/18 01:21:19;;;;;;;2.9;1.8;;;;;;;7.05;76.77441;934.4921;;;;
2023/03/18 01:23:44;;;;;;;4.3;2.3;;;;;;;7.14;77.00684;934.481;;;;
2023/03/18 01:26:10;;;;;;;3.8;2.3;;;;;;;7.2;76.72266;934.5294;;;;
2023/03/18 01:28:35;;;;;;;5;2.3;;;;;;;7.19;76.51855;934.5839;;;;
2023/03/18 01:31:00;;;;;;;3.6;2.1;;;;;;;7.16;76.21777;934.6183;;;;
2023/03/18 01:33:28;;;;;;;3.9;2;;;;;;;7.05;76.3457;934.4771;;;;
2023/03/18 01:35:53;;;;;;;3.7;2.2;;;;;;;6.96;76.47656;934.5719;;;;
2023/03/18 01:38:20;;;;;;;5.7;2.5;;;;;;;6.93;76.5166;934.5564;;;;
2023/03/18 01:40:45;;;;;;;3.4;2.5;;;;;;;6.94;76.42773;934.5914;;;;
2023/03/18 01:43:11;;;;;;;4.3;2.9;;;;;;;6.96;76.19531;934.6369;;;;
2023/03/18 01:45:35;;;;;;;3.3;2.7;;;;;;;6.9;76.82715;934.6658;;;;
2023/03/18 01:48:02;;;;;;;4;2.6;;;;;;;6.91;76.33105;934.666;;;;
2023/03/18 01:50:27;;;;;;;4.5;2.6;;;;;;;6.77;76.63379;934.6086;;;;
2023/03/18 01:52:52;;;;;;;3.1;2.3;;;;;;;6.69;77.27734;934.5464;;;;
2023/03/18 01:55:18;;;;;;;4.1;2.6;;;;;;;6.74;77.23047;934.5084;;;;
2023/03/18 01:57:45;;;;;;;2.7;2.4;;;;;;;6.72;77.41797;934.5461;;;;
2023/03/18 02:00:11;;;;;;;3.5;2.3;;;;;;;6.76;77.22168;934.5697;;;;
2023/03/18 02:02:39;;;;;;;3.1;2.2;;;;;;;6.72;77.38379;934.5525;;;;
2023/03/18 02:05:10;;;;;;;4.4;2;;;;;;;6.62;77.89746;934.4905;;;;
2023/03/18 02:07:35;;;;;;;4.3;2.2;;;;;;;6.67;77.73926;934.6118;;;;
2023/03/18 02:10:01;;;;;;;3.9;1.8;;;;;;;6.77;77.25781;934.4955;;;;
2023/03/18 02:12:25;;;;;;;3.5;1.9;;;;;;;6.78;77.25;934.548;;;;
2023/03/18 02:14:52;;;;;;;2.9;2;;;;;;;6.81;77.15234;934.5078;;;;
2023/03/18 02:17:18;;;;;;;2.4;1.6;;;;;;;6.63;77.77637;934.5858;;;;
2023/03/18 02:19:46;;;;;;;1.4;1.3;;;;;;;6.61;78.02148;934.6351;;;;
2023/03/18 02:22:10;;;;;;;2.5;1.7;;;;;;;6.58;77.89063;934.6272;;;;
2023/03/18 02:24:35;;;;;;;3.7;1.5;;;;;;;6.67;77.64551;934.644;;;;
2023/03/18 02:27:00;;;;;;;1.9;1.6;;;;;;;6.73;76.86621;934.6453;;;;
2023/03/18 02:29:26;;;;;;;2.5;1.6;;;;;;;6.71;76.78418;934.6085;;;;
2023/03/18 02:31:52;;;;;;;2.3;1.7;;;;;;;6.75;76.73242;934.651;;;;
2023/03/18 02:34:17;;;;;;;2.7;1.7;;;;;;;6.73;76.75293;934.688;;;;
2023/03/18 02:36:42;;;;;;;3.4;1.8;;;;;;;6.68;77.2207;934.7203;;;;
2023/03/18 02:39:11;;;;;;;2.3;1.7;;;;;;;6.65;77.54199;934.6628;;;;
2023/03/18 02:41:36;;;;;;;2.7;1.6;;;;;;;6.56;77.84277;934.7051;;;;
2023/03/18 02:44:01;;;;;;;3.3;1.6;;;;;;;6.6;77.62305;934.6781;;;;
2023/03/18 02:46:52;;;;;;;3.3;1.9;;;;;;;6.54;77.89551;934.7523;;;;
2023/03/18 02:49:17;;;;;;;3.6;1.8;;;;;;;6.55;77.91992;934.7026;;;;
2023/03/18 02:51:46;;;;;;;2.4;1.8;;;;;;;6.67;77.40918;934.7288;;;;
2023/03/18 02:54:11;;;;;;;3.4;1.7;;;;;;;6.73;76.76465;934.7307;;;;
2023/03/18 02:56:38;;;;;;;3.6;2.3;;;;;;;6.69;76.80176;934.7584;;;;
2023/03/18 02:59:03;;;;;;;3.4;2;;;;;;;6.67;76.75488;934.7684;;;;
2023/03/18 03:01:32;;;;;;;4.2;2.5;;;;;;;6.64;76.79199;934.7322;;;;
2023/03/18 03:03:57;;;;;;;3.1;1.9;;;;;;;6.52;77.15527;934.7399;;;;
2023/03/18 03:06:25;;;;;;;3;1.9;;;;;;;6.46;77.63184;934.7745;;;;
2023/03/18 03:08:50;;;;;;;3.2;2.3;;;;;;;6.49;77.56738;934.7932;;;;
2023/03/18 03:11:15;;;;;;;5.2;2.3;;;;;;;6.62;77.35449;934.8323;;;;
2023/03/18 03:13:40;;;;;;;5.2;2.2;;;;;;;6.69;76.90332;934.7964;;;;
2023/03/18 03:16:06;;;;;;;2.8;2;;;;;;;6.65;77.46289;934.8439;;;;
2023/03/18 03:18:36;;;;;;;3.3;2.2;;;;;;;6.56;77.10742;934.873;;;;
2023/03/18 03:21:04;;;;;;;3.2;2.1;;;;;;;6.58;77.13281;934.8502;;;;
2023/03/18 03:23:30;;;;;;;5.1;2.5;;;;;;;6.68;77.08301;934.7787;;;;
2023/03/18 03:25:59;;;;;;;3.9;2;;;;;;;6.64;77.00879;934.8723;;;;
2023/03/18 03:28:31;;;;;;;1.7;1.5;;;;;;;6.44;77.83203;934.9244;;;;
2023/03/18 03:31:00;;;;;;;3.4;1.9;;;;;;;6.47;77.58887;934.8853;;;;
2023/03/18 03:33:26;;;;;;;2.3;1.6;;;;;;;6.47;77.49805;934.9526;;;;
2023/03/18 03:35:53;;;;;;;3;1.5;;;;;;;6.42;77.69141;934.988;;;;
2023/03/18 03:38:18;;;;;;;2.3;1.7;;;;;;;6.37;77.83984;934.9843;;;;
2023/03/18 03:40:46;;;;;;;2;1.6;;;;;;;6.32;78.03711;935.0048;;;;
2023/03/18 03:43:11;;;;;;;3.8;1.9;;;;;;;6.28;78.2998;934.9359;;;;
2023/03/18 03:45:39;;;;;;;2.6;1.8;;;;;;;6.18;78.7793;934.9265;;;;
2023/03/18 03:48:04;;;;;;;2.1;1.6;;;;;;;6.17;78.92285;934.9808;;;;
2023/03/18 03:50:35;;;;;;;2.9;1.8;;;;;;;6.21;78.74902;934.9708;;;;
2023/03/18 03:53:05;;;;;;;2.3;2.1;;;;;;;6.24;78.47266;934.9398;;;;
2023/03/18 03:55:34;;;;;;;3.3;1.7;;;;;;;6.23;78.32617;934.9769;;;;
2023/03/18 03:57:59;;;;;;;2.8;1.7;;;;;;;6.34;77.99316;935.0295;;;;
2023/03/18 04:02:31;;;;;;;2.6;1.8;;;;;;;6.4;78.27832;935.0427;;;;
2023/03/18 04:04:56;;;;;;;2.8;1.6;;;;;;;6.32;78.85156;935.0056;;;;
2023/03/18 04:07:26;;;;;;;2.4;1.6;;;;;;;6.38;78.0918;935.0708;;;;
2023/03/18 04:09:51;;;;;;;2.5;1.5;;;;;;;6.38;78.14844;935.0344;;;;
2023/03/18 04:12:17;;;;;;;2.2;1.6;;;;;;;6.4;77.85938;935.0292;;;;
2023/03/18 04:14:42;;;;;;;2.7;1.5;;;;;;;6.4;77.88184;935.0403;;;;
2023/03/18 04:17:06;;;;;;;2.3;1.4;;;;;;;6.49;77.5;935.0162;;;;
2023/03/18 04:19:33;;;;;;;2.5;1.6;;;;;;;6.39;77.71094;934.9952;;;;
2023/03/18 04:21:58;;;;;;;1.6;1.5;;;;;;;6.29;78.1084;934.9416;;;;
2023/03/18 04:24:26;;;;;;;2.1;1.5;;;;;;;6.2;78.3418;934.938;;;;
2023/03/18 04:26:51;;;;;;;2.6;1.6;;;;;;;6.23;78.12207;934.9722;;;;
2023/03/18 04:29:16;;;;;;;1.9;1.5;;;;;;;6.36;77.47656;934.947;;;;
2023/03/18 04:31:41;;;;;;;2.4;1.5;;;;;;;6.46;77.07813;934.9484;;;;
2023/03/18 04:34:08;;;;;;;3.4;1.7;;;;;;;6.49;77.33203;934.9419;;;;
2023/03/18 04:36:35;;;;;;;2.4;1.4;;;;;;;6.49;77.60254;934.8945;;;;
2023/03/18 04:39:02;;;;;;;2.7;1.9;;;;;;;6.54;77.43164;934.8954;;;;
2023/03/18 04:41:27;;;;;;;3.4;1.6;;;;;;;6.57;77.21094;934.9338;;;;
2023/03/18 04:43:59;;;;;;;2.1;1.5;;;;;;;6.41;77.69043;934.9236;;;;
2023/03/18 04:46:23;;;;;;;2.6;1.8;;;;;;;6.4;77.71094;934.9114;;;;
2023/03/18 04:48:51;;;;;;;3.6;1.8;;;;;;;6.43;77.55957;934.985;;;;
2023/03/18 04:51:17;;;;;;;3.3;1.6;;;;;;;6.37;77.52539;934.9472;;;;
2023/03/18 04:53:44;;;;;;;3.5;1.9;;;;;;;6.31;77.85254;934.9863;;;;
2023/03/18 04:56:09;;;;;;;3.2;1.8;;;;;;;6.29;77.90625;934.9772;;;;
2023/03/18 04:58:34;;;;;;;2.7;1.8;;;;;;;6.24;78.14551;934.947;;;;
2023/03/18 05:01:04;;;;;;;3.7;1.9;;;;;;;6.3;77.81934;934.9861;;;;
2023/03/18 05:03:28;;;;;;;2.5;1.9;;;;;;;6.33;77.5166;934.9891;;;;
2023/03/18 05:05:54;;;;;;;2.5;1.7;;;;;;;6.42;77.20508;935.0037;;;;
2023/03/18 05:08:19;;;;;;;3.3;1.9;;;;;;;6.33;77.36035;934.9749;;;;
2023/03/18 05:10:47;;;;;;;3.5;1.6;;;;;;;6.19;78.1582;935.0048;;;;
2023/03/18 05:13:12;;;;;;;3.8;2.2;;;;;;;6.21;78.21875;935.0041;;;;
2023/03/18 05:15:42;;;;;;;2.7;1.8;;;;;;;6.13;78.39648;934.957;;;;
2023/03/18 05:18:07;;;;;;;3.5;1.8;;;;;;;6.08;78.71582;934.9981;;;;
2023/03/18 05:20:34;;;;;;;3.9;1.9;;;;;;;6.12;78.70117;935.0249;;;;
2023/03/18 05:22:59;;;;;;;4.5;2.6;;;;;;;6.01;79.01855;935.0258;;;;
2023/03/18 05:25:25;;;;;;;4.1;1.8;;;;;;;5.98;79.18164;935.0003;;;;
2023/03/18 05:27:56;;;;;;;5.3;2.1;;;;;;;5.9;79.59766;935.0643;;;;
2023/03/18 05:30:24;;;;;;;4;2;;;;;;;5.96;79.37207;935.0663;;;;
2023/03/18 05:32:53;;;;;;;2.2;1.9;;;;;;;5.99;78.74316;935.0881;;;;
2023/03/18 05:35:26;;;;;;;4.7;2.7;;;;;;;6.05;78.55078;935.0457;;;;
2023/03/18 05:37:50;;;;;;;2.9;2;;;;;;;6;78.72363;935.1557;;;;
2023/03/18 05:40:23;;;;;;;3.8;2.3;;;;;;;5.94;78.87012;935.1488;;;;
2023/03/18 05:42:51;;;;;;;9;5.4;;;;;;;5.89;78.98633;935.1838;;;;
2023/03/18 05:45:16;;;;;;;10.5;7.1;;;;;;;5.97;78.69629;935.1456;;;;
2023/03/18 05:47:44;;;;;;;5.3;3.8;;;;;;;6.03;78.64941;935.166;;;;
2023/03/18 05:50:09;;;;;;;5.7;3.1;;;;;;;6.05;78.58496;935.1499;;;;
2023/03/18 05:52:37;;;;;;;4.5;2.7;;;;;;;6.1;78.48145;935.1312;;;;
2023/03/18 05:55:06;;;;;;;3.8;2.6;;;;;;;6.15;78.50293;935.171;;;;
2023/03/18 05:57:31;;;;;;;5.6;2.7;;;;;;;6.28;77.97266;935.0995;;;;
2023/03/18 05:59:59;;;;;;;3.4;2.4;;;;;;;6.38;77.83203;935.0811;;;;
2023/03/18 06:02:25;;;;;;;5.2;2.8;;;;;;;6.35;77.60156;935.0402;;;;
2023/03/18 06:04:52;;;;;;;7.4;4.9;;;;;;;6.3;77.97754;935.0984;;;;
2023/03/18 06:07:19;;;;;;;5.4;4.1;;;;;;;6.38;77.62891;935.0967;;;;
2023/03/18 06:09:43;;;;;;;8.4;4.8;;;;;;;6.43;77.45703;935.1085;;;;
2023/03/18 06:12:11;;;;;;;8.6;4;;;;;;;6.54;77.3623;935.12;;;;
2023/03/18 06:14:36;;;;;;;7.9;3.3;;;;;;;6.53;76.8418;935.1166;;;;
2023/03/18 06:17:01;;;;;;;4.8;3.5;;;;;;;6.49;76.69824;935.1309;;;;
2023/03/18 06:19:30;;;;;;;5.5;2.8;;;;;;;6.51;76.92773;935.1305;;;;
2023/03/18 06:21:54;;;;;;;3.4;2.6;;;;;;;6.54;77.01172;935.1904;;;;
2023/03/18 06:24:24;;;;;;;5.9;2.9;;;;;;;6.6;76.81934;935.1472;;;;
2023/03/18 06:26:53;;;;;;;3.4;2.7;;;;;;;6.64;76.58789;935.2029;;;;
2023/03/18 06:29:18;;;;;;;4.5;3;;;;;;;6.62;76.38184;935.2167;;;;
2023/03/18 06:31:47;;;;;;;8.5;4.8;;;;;;;6.47;76.64941;935.2175;;;;
2023/03/18 06:34:12;;;;;;;8;4.5;;;;;;;6.38;77.40234;935.1964;;;;
2023/03/18 06:36:40;;;;;;;11.3;4.4;;;;;;;6.46;77.23633;935.1983;;;;
2023/03/18 06:39:05;;;;;;;5.6;3.7;;;;;;;6.39;77.2793;935.2283;;;;
2023/03/18 06:41:31;;;;;;;5.8;2.7;;;;;;;6.58;76.56934;935.2648;;;;
2023/03/18 06:43:57;;;;;;;4.3;2.1;;;;;;;6.77;75.49023;935.1325;;;;
2023/03/18 06:46:25;;;;;;;4.6;2.8;;;;;;;6.96;74.51758;935.1995;;;;
2023/03/18 06:48:50;;;;;;;6.7;3.4;;;;;;;7.38;73.52637;935.1812;;;;
2023/03/18 06:51:18;;;;;;;8.3;4.4;;;;;;;7.55;72.17188;935.2308;;;;
2023/03/18 06:53:43;;;;;;;8.9;4.4;;;;;;;7.52;72.62109;935.2241;;;;
2023/03/18 06:56:08;;;;;;;3.5;2.2;;;;;;;7.6;72.46289;935.2142;;;;
2023/03/18 06:58:33;;;;;;;3.4;1.8;;;;;;;7.6;72.6123;935.2198;;;;
2023/03/18 07:01:01;;;;;;;2.9;2;;;;;;;7.64;72.00586;935.2081;;;;
2023/03/18 07:03:26;;;;;;;3.3;1.8;;;;;;;7.77;71.48242;935.1022;;;;
2023/03/18 07:05:53;;;;;;;3;2;;;;;;;7.82;71.60449;935.0938;;;;
2023/03/18 07:08:19;;;;;;;4;1.8;;;;;;;8.13;70.7002;935.1315;;;;
2023/03/18 07:10:47;;;;;;;5;2.3;;;;;;;8.19;69.50781;935.1744;;;;
2023/03/18 07:13:14;;;;;;;6.1;3.2;;;;;;;8.09;69.96973;935.147;;;;
2023/03/18 07:15:45;;;;;;;5.3;3;;;;;;;8.27;69.45215;935.144;;;;
2023/03/18 07:18:13;;;;;;;5.1;2.8;;;;;;;8.44;68.85645;935.0706;;;;
2023/03/18 07:20:37;;;;;;;4.1;2.8;;;;;;;8.11;69.49609;935.1194;;;;
2023/03/18 07:23:04;;;;;;;4.9;2.5;;;;;;;8.38;68.74316;935.1076;;;;
2023/03/18 07:25:29;;;;;;;6.6;2.8;;;;;;;8.75;67.70996;935.0355;;;;
2023/03/18 07:27:56;;;;;;;3.8;2.6;;;;;;;8.86;67.26074;934.9615;;;;
2023/03/18 07:30:21;;;;;;;4.2;2.8;;;;;;;9.07;66.89551;935.0949;;;;
2023/03/18 07:32:50;;;;;;;3.4;2.5;;;;;;;9.39;66.19531;935.0767;;;;
2023/03/18 07:35:15;;;;;;;3.4;2.4;;;;;;;9.9;64.5957;935.0441;;;;
2023/03/18 07:37:43;;;;;;;3.9;2.6;;;;;;;10.12;62.73633;935.0878;;;;
2023/03/18 07:40:08;;;;;;;7.2;3.6;;;;;;;10.29;63.03613;935.126;;;;
2023/03/18 07:42:37;;;;;;;5.8;3.1;;;;;;;10.56;61.5791;935.0496;;;;
2023/03/18 07:45:02;;;;;;;5.9;3;;;;;;;10.9;61.11328;934.9963;;;;
2023/03/18 07:47:31;;;;;;;6;2.9;;;;;;;11.24;59.80078;935.0016;;;;
2023/03/18 07:49:56;;;;;;;4.5;2.8;;;;;;;11.51;58.66895;935.0269;;;;
2023/03/18 07:52:23;;;;;;;3;2.1;;;;;;;11.65;57.10938;934.9554;;;;
2023/03/18 07:54:48;;;;;;;3.9;2.2;;;;;;;11.73;56.36426;934.8859;;;;
2023/03/18 07:57:17;;;;;;;4.6;2.2;;;;;;;11.81;56.70605;934.8622;;;;
2023/03/18 07:59:42;;;;;;;3.8;2.3;;;;;;;11.86;56.25488;934.8705;;;;
2023/03/18 08:02:07;;;;;;;4.1;2.6;;;;;;;12.13;55.38379;934.9047;;;;
2023/03/18 08:04:34;;;;;;;2.2;1.7;;;;;;;12.13;54.07715;934.9015;;;;
2023/03/18 08:07:00;;;;;;;3.1;1.9;;;;;;;12.66;53.23828;934.8456;;;;
2023/03/18 08:09:29;;;;;;;3.8;1.8;;;;;;;12.84;52.68652;934.8331;;;;
2023/03/18 08:11:59;;;;;;;2.7;1.7;;;;;;;12.39;53.42188;934.8372;;;;
2023/03/18 08:14:23;;;;;;;3.3;1.7;;;;;;;12.99;51.78516;934.8627;;;;
2023/03/18 08:16:49;;;;;;;2.6;1.6;;;;;;;13.83;48.80176;934.8145;;;;
2023/03/18 08:19:17;;;;;;;4.4;2;;;;;;;13.95;47.84863;934.7839;;;;
2023/03/18 08:21:42;;;;;;;4;2.4;;;;;;;13.94;47.92871;934.8;;;;
2023/03/18 08:24:12;;;;;;;3;2.2;;;;;;;14.04;47.74316;934.8122;;;;
2023/03/18 08:26:37;;;;;;;4.4;1.7;;;;;;;14.25;47.47949;934.8639;;;;
2023/03/18 08:29:03;;;;;;;3.2;1.9;;;;;;;14.17;47.50488;934.8365;;;;
2023/03/18 08:31:29;;;;;;;2.6;1.6;;;;;;;13.86;49.03613;934.7662;;;;
2023/03/18 08:33:57;;;;;;;3.8;2.5;;;;;;;13.37;49.6123;934.8092;;;;
2023/03/18 08:36:21;;;;;;;3.8;2.1;;;;;;;13.84;48.34375;934.7831;;;;
2023/03/18 08:38:51;;;;;;;11.3;6.6;;;;;;;14.9;46.38477;934.7271;;;;
2023/03/18 08:41:19;;;;;;;6.1;3.3;;;;;;;16.08;44.71777;934.7088;;;;
2023/03/18 08:43:44;;;;;;;4.1;2.4;;;;;;;16.11;44.58203;934.7396;;;;
2023/03/18 08:46:12;;;;;;;2.9;1.8;;;;;;;16.88;42.4248;934.6362;;;;
2023/03/18 08:48:37;;;;;;;3.3;2.4;;;;;;;17.55;41.32813;934.6742;;;;
2023/03/18 08:51:06;;;;;;;6;3.7;;;;;;;17.53;41.82617;934.6166;;;;
2023/03/18 08:53:30;;;;;;;14.7;9.8;;;;;;;17.41;41.52539;934.529;;;;
2023/03/18 08:55:57;;;;;;;16.2;9.8;;;;;;;17.55;39.86719;934.5558;;;;
2023/03/18 08:58:22;;;;;;;13.7;9.1;;;;;;;18.04;40.64258;934.5475;;;;
2023/03/18 09:00:51;;;;;;;15.9;8.7;;;;;;;18.73;38.90332;934.5224;;;;
2023/03/18 09:03:16;;;;;;;6.4;4.4;;;;;;;18.66;37.4082;934.4597;;;;
2023/03/18 09:05:44;;;;;;;7;4.4;;;;;;;18.79;37.32617;934.4827;;;;
2023/03/18 09:08:08;;;;;;;4.3;2.7;;;;;;;17.52;38.77344;934.4672;;;;
2023/03/18 09:10:37;;;;;;;5.2;2.6;;;;;;;17.36;41.50781;934.4914;;;;
2023/03/18 09:13:02;;;;;;;3.7;2.4;;;;;;;18.6;38.85742;934.4456;;;;
2023/03/18 09:15:35;;;;;;;3.1;2.1;;;;;;;19.67;35.81543;934.4542;;;;
2023/03/18 09:18:03;;;;;;;1.9;1.5;;;;;;;20.38;34.69434;934.4032;;;;
2023/03/18 09:20:28;;;;;;;5.2;1.9;;;;;;;21.23;33.69629;934.3596;;;;
2023/03/18 09:22:56;;;;;;;2.7;1.8;;;;;;;21.89;33.93359;934.3139;;;;
2023/03/18 09:25:21;;;;;;;3.8;1.9;;;;;;;22.15;31.24414;934.3889;;;;
2023/03/18 09:27:48;;;;;;;2.3;1.6;;;;;;;22.55;31.78906;934.4101;;;;
2023/03/18 09:30:13;;;;;;;2.8;1.4;;;;;;;22.73;30.91016;934.4472;;;;
2023/03/18 09:32:39;;;;;;;1.3;1.1;;;;;;;22.2;29.77051;934.3918;;;;
2023/03/18 09:35:04;;;;;;;2.8;1.5;;;;;;;22.2;30.24023;934.4549;;;;
2023/03/18 09:37:32;;;;;;;1.8;1.4;;;;;;;22.69;29.81543;934.3883;;;;
2023/03/18 09:39:58;;;;;;;2.6;1.5;;;;;;;22.8;29.21289;934.3604;;;;
2023/03/18 09:42:31;;;;;;;3.6;2;;;;;;;22.57;28.62207;934.3774;;;;
2023/03/18 09:44:56;;;;;;;1.8;1.3;;;;;;;22.78;29.09375;934.3541;;;;
2023/03/18 09:47:23;;;;;;;1.3;1.2;;;;;;;22.03;29.83008;934.3133;;;;
2023/03/18 09:49:48;;;;;;;2.2;1.2;;;;;;;22.57;28.89258;934.3345;;;;
2023/03/18 09:52:19;;;;;;;2.3;1.2;;;;;;;22.71;28.25488;934.315;;;;
2023/03/18 09:54:45;;;;;;;1.8;1;;;;;;;22.99;28.90723;934.3136;;;;
2023/03/18 09:57:12;;;;;;;1.7;1.2;;;;;;;23.04;27.24316;934.2989;;;;
2023/03/18 09:59:37;;;;;;;1.5;0.8;;;;;;;23.33;27.57813;934.3254;;;;
2023/03/18 10:02:02;;;;;;;1.8;0.8;;;;;;;23.33;26.53125;934.2906;;;;
2023/03/18 10:04:27;;;;;;;1;0.8;;;;;;;23.25;26.30371;934.2739;;;;
2023/03/18 10:06:55;;;;;;;2;1.1;;;;;;;23.61;27.125;934.2544;;;;
2023/03/18 10:09:20;;;;;;;2.3;1.1;;;;;;;23.26;27.17383;934.2539;;;;
2023/03/18 10:11:46;;;;;;;1.3;1.1;;;;;;;23.88;27.72949;934.2651;;;;
2023/03/18 10:14:11;;;;;;;3.4;1.3;;;;;;;23.9;27.55469;934.2609;;;;
2023/03/18 10:16:41;;;;;;;2.3;1.3;;;;;;;24.03;26.96191;934.188;;;;
2023/03/18 10:19:12;;;;;;;2.1;1.2;;;;;;;24.43;27.42188;934.1674;;;;
2023/03/18 10:21:38;;;;;;;1.6;1.3;;;;;;;23.6;28.08887;934.1707;;;;
2023/03/18 10:24:03;;;;;;;3.9;1.2;;;;;;;23.61;27.50195;934.1244;;;;
2023/03/18 10:26:33;;;;;;;1.6;0.9;;;;;;;23.88;26.96484;934.1429;;;;
2023/03/18 10:28:58;;;;;;;1.9;1;;;;;;;24.36;26.39258;934.1227;;;;
2023/03/18 10:31:24;;;;;;;2.7;1.2;;;;;;;23.54;28.06152;934.0894;;;;
2023/03/18 10:33:48;;;;;;;1.4;1.1;;;;;;;23.81;27.9375;934.0784;;;;
2023/03/18 10:36:13;;;;;;;1.5;0.9;;;;;;;22.89;28.43164;934.0209;;;;
2023/03/18 10:38:39;;;;;;;0.9;0.7;;;;;;;23.1;27.86914;934.0034;;;;
2023/03/18 10:41:05;;;;;;;1.6;0.9;;;;;;;23.84;27.39746;933.9953;;;;
2023/03/18 10:43:30;;;;;;;1.5;0.8;;;;;;;24.48;26.09277;934.0341;;;;
2023/03/18 10:45:56;;;;;;;1.1;0.9;;;;;;;25.43;24.93262;933.9476;;;;
2023/03/18 10:48:21;;;;;;;1;0.7;;;;;;;26.43;24.34863;933.9073;;;;
2023/03/18 10:50:46;;;;;;;1.5;0.9;;;;;;;26.66;23.08203;933.7896;;;;
2023/03/18 10:53:11;;;;;;;2.3;0.9;;;;;;;26.53;23.16992;933.7775;;;;
2023/03/18 10:55:36;;;;;;;3.3;0.8;;;;;;;26.43;23.75781;933.7228;;;;
2023/03/18 10:58:03;;;;;;;1.8;1;;;;;;;25.45;24.98047;933.7297;;;;
2023/03/18 11:00:29;;;;;;;1.6;1;;;;;;;26.12;24.72266;933.7271;;;;
2023/03/18 11:03:00;;;;;;;1;0.8;;;;;;;25.84;25.45215;933.6181;;;;
2023/03/18 11:05:32;;;;;;;1.6;1;;;;;;;26.31;25.14746;933.5733;;;;
2023/03/18 11:07:59;;;;;;;1.8;0.9;;;;;;;27.07;23.44727;933.4461;;;;
2023/03/18 11:10:24;;;;;;;2.2;1;;;;;;;27.6;22.7627;933.4286;;;;
2023/03/18 11:12:54;;;;;;;0.7;0.7;;;;;;;27.22;24.00098;933.3934;;;;
2023/03/18 11:15:26;;;;;;;3.2;1;;;;;;;26.01;25.76953;933.3324;;;;
2023/03/18 11:17:52;;;;;;;1.3;1;;;;;;;25.96;26.02637;933.3729;;;;
2023/03/18 11:20:19;;;;;;;2.3;0.9;;;;;;;25.65;26.00781;933.2752;;;;
2023/03/18 11:22:43;;;;;;;1.5;0.8;;;;;;;24.86;26.75293;933.2;;;;
2023/03/18 11:25:16;;;;;;;1.1;0.8;;;;;;;24.55;27.09961;933.212;;;;
2023/03/18 11:27:44;;;;;;;1;0.9;;;;;;;24.62;27.0332;933.1131;;;;
2023/03/18 11:30:09;;;;;;;1.6;1;;;;;;;25.25;27.1543;933.1006;;;;
2023/03/18 11:32:37;;;;;;;1.3;0.8;;;;;;;24.36;28.82031;933.1019;;;;
2023/03/18 11:35:01;;;;;;;2;1;;;;;;;25.02;26.125;933.1445;;;;
2023/03/18 11:37:29;;;;;;;1.4;1;;;;;;;25.76;25.14063;933.0717;;;;
2023/03/18 11:39:58;;;;;;;1.3;0.9;;;;;;;25.3;27.44043;932.9445;;;;
2023/03/18 11:42:23;;;;;;;1.2;1;;;;;;;25.18;27.94043;932.9553;;;;
2023/03/18 11:44:53;;;;;;;3;0.9;;;;;;;25.59;26.55957;932.9512;;;;
2023/03/18 11:47:17;;;;;;;2.2;1;;;;;;;25.61;26.53809;932.9331;;;;
2023/03/18 11:49:43;;;;;;;2.3;1.1;;;;;;;25.62;26.95215;932.9235;;;;
2023/03/18 11:52:07;;;;;;;2.4;1.4;;;;;;;25.28;28.15918;932.8156;;;;
2023/03/18 11:54:33;;;;;;;1.8;1.2;;;;;;;25.22;28.17969;932.9022;;;;
2023/03/18 11:57:03;;;;;;;1.5;1.1;;;;;;;26.53;25.72852;932.9083;;;;
2023/03/18 11:59:28;;;;;;;1.2;0.9;;;;;;;26.94;25.06445;932.8549;;;;
2023/03/18 12:01:53;;;;;;;4.1;1.5;;;;;;;26.79;25.22168;932.8387;;;;
2023/03/18 12:04:18;;;;;;;1.7;1.2;;;;;;;25.87;27.30957;932.878;;;;
2023/03/18 12:06:43;;;;;;;3.3;1.2;;;;;;;25.38;27.40918;932.8369;;;;
2023/03/18 12:09:15;;;;;;;1.8;1.1;;;;;;;25.51;27.25293;932.7449;;;;
2023/03/18 12:11:45;;;;;;;2.4;1;;;;;;;26.03;27.27246;932.7623;;;;
2023/03/18 12:14:17;;;;;;;2.4;1.1;;;;;;;26.27;26.60059;932.8077;;;;
2023/03/18 12:16:44;;;;;;;1.2;1.1;;;;;;;26.25;27.66406;932.7999;;;;
2023/03/18 12:19:09;;;;;;;2.4;1.3;;;;;;;26.59;26.02734;932.7529;;;;
2023/03/18 12:21:34;;;;;;;2.2;1.2;;;;;;;25.88;27.60547;932.726;;;;
2023/03/18 12:24:00;;;;;;;3;1.1;;;;;;;25.82;28.26465;932.8039;;;;
2023/03/18 12:26:28;;;;;;;3.9;1.2;;;;;;;27;25.74219;932.7539;;;;
2023/03/18 12:28:53;;;;;;;3.3;1.2;;;;;;;28.65;23.18457;932.7236;;;;
2023/03/18 12:31:21;;;;;;;2.6;1.6;;;;;;;27.24;26.39746;932.7626;;;;
2023/03/18 12:33:45;;;;;;;2.1;1.2;;;;;;;27.44;26.2666;932.723;;;;
2023/03/18 12:36:11;;;;;;;1.9;1.4;;;;;;;26.54;27.30371;932.6972;;;;
2023/03/18 12:38:35;;;;;;;1.8;1.3;;;;;;;27.81;24.82715;932.6908;;;;
2023/03/18 12:41:00;;;;;;;1.8;1.1;;;;;;;28.84;23.75391;932.6369;;;;
2023/03/18 12:43:26;;;;;;;2.4;1.1;;;;;;;27.64;24.85352;932.6412;;;;
2023/03/18 12:45:50;;;;;;;4.6;1.1;;;;;;;27.59;25.0293;932.558;;;;
2023/03/18 12:48:16;;;;;;;1.8;1.1;;;;;;;27.83;24.29492;932.5672;;;;
2023/03/18 12:50:42;;;;;;;1.9;1.2;;;;;;;28.02;24.43457;932.4453;;;;
2023/03/18 12:53:07;;;;;;;1.5;1;;;;;;;29;23.07129;932.5033;;;;
2023/03/18 12:55:32;;;;;;;2.6;1.2;;;;;;;31.1;20.79883;932.5803;;;;
2023/03/18 12:57:58;;;;;;;2.6;1.2;;;;;;;29.99;22.02539;932.545;;;;
2023/03/18 13:00:24;;;;;;;2.1;1.2;;;;;;;27.67;23.97754;932.5441;;;;
2023/03/18 13:02:48;;;;;;;1.5;1.4;;;;;;;27.5;25.55762;932.5237;;;;
2023/03/18 13:05:13;;;;;;;1.8;1.2;;;;;;;26.57;26.07324;932.3787;;;;
2023/03/18 13:07:41;;;;;;;3.2;1.3;;;;;;;26.6;25.79102;932.4141;;;;
2023/03/18 13:10:05;;;;;;;1.8;1.2;;;;;;;28.19;23.98047;932.4567;;;;
2023/03/18 13:12:32;;;;;;;1.3;0.9;;;;;;;28.35;24.23926;932.285;;;;
2023/03/18 13:15:01;;;;;;;1.8;1.2;;;;;;;26.51;26.86328;932.2614;;;;
2023/03/18 13:17:28;;;;;;;1.5;1;;;;;;;28.13;24.04883;932.3561;;;;
2023/03/18 13:19:53;;;;;;;2.6;1.3;;;;;;;29.49;22.56055;932.3521;;;;
2023/03/18 13:22:19;;;;;;;1.9;1.2;;;;;;;30.8;21.4668;932.3978;;;;
2023/03/18 13:24:43;;;;;;;1.6;1.1;;;;;;;29.65;23.30762;932.3304;;;;
2023/03/18 13:27:12;;;;;;;2.1;1.4;;;;;;;28.82;23.83594;932.2436;;;;
2023/03/18 13:29:37;;;;;;;3.3;1.5;;;;;;;28.48;24.34082;932.3033;;;;
2023/03/18 13:32:02;;;;;;;1.9;1.4;;;;;;;29.19;23.16504;932.3054;;;;
2023/03/18 13:34:30;;;;;;;1.2;1.1;;;;;;;27.85;24.72266;932.2787;;;;
2023/03/18 13:36:56;;;;;;;1.6;1.3;;;;;;;28.53;24.55762;932.2231;;;;
2023/03/18 13:39:25;;;;;;;3.8;1.5;;;;;;;27.55;25.65527;932.236;;;;
2023/03/18 13:41:53;;;;;;;2.6;1.3;;;;;;;26.11;27.54883;932.1603;;;;
2023/03/18 13:44:18;;;;;;;1.7;1.2;;;;;;;24.91;29.06738;932.1785;;;;
2023/03/18 13:46:44;;;;;;;2.8;1.3;;;;;;;25.42;27.84863;932.0455;;;;
2023/03/18 13:49:09;;;;;;;3.4;1.2;;;;;;;24.33;30.24316;932.0516;;;;
2023/03/18 13:51:34;;;;;;;1.2;1.1;;;;;;;24.51;29.56055;932.0388;;;;
2023/03/18 13:54:03;;;;;;;2.4;1.2;;;;;;;26.12;27.7627;932.0524;;;;
2023/03/18 13:56:28;;;;;;;1.7;1.2;;;;;;;25.68;27.87793;931.9744;;;;
2023/03/18 13:58:54;;;;;;;3.3;1.1;;;;;;;26.2;27.06934;931.9341;;;;
2023/03/18 14:01:19;;;;;;;1.9;1.2;;;;;;;25.89;27.91406;931.9927;;;;
2023/03/18 14:03:48;;;;;;;3.4;1.4;;;;;;;24.9;28.57129;931.9842;;;;
2023/03/18 14:06:13;;;;;;;3.7;1.5;;;;;;;25.19;28.07129;931.9556;;;;
2023/03/18 14:08:43;;;;;;;2.8;1.4;;;;;;;24.99;28.29395;931.95;;;;
2023/03/18 14:11:08;;;;;;;2.3;1;;;;;;;25.17;28.08105;931.9037;;;;
2023/03/18 14:13:34;;;;;;;2.8;1.1;;;;;;;25.47;27.76953;931.8869;;;;
2023/03/18 14:15:59;;;;;;;2.9;1.2;;;;;;;25.37;28.12891;931.8867;;;;
2023/03/18 14:18:31;;;;;;;2.9;1.3;;;;;;;24.47;29.76953;931.9309;;;;
2023/03/18 14:20:54;;;;;;;2.5;1.2;;;;;;;23.67;30.95215;931.98;;;;
2023/03/18 14:23:21;;;;;;;2.4;1.3;;;;;;;23.44;31.08887;931.9308;;;;
2023/03/18 14:25:47;;;;;;;3;1.4;;;;;;;22.93;31.95703;931.9731;;;;
2023/03/18 14:28:12;;;;;;;1.9;1.2;;;;;;;22.86;31.84668;931.9615;;;;
2023/03/18 14:30:40;;;;;;;1.8;1.1;;;;;;;22.59;32.00391;931.9442;;;;